createdAt,value
2022-08-02T00:00:22.041Z,18.40
2022-08-02T00:02:50.935Z,18.40
2022-08-02T00:05:26.075Z,18.30
2022-08-02T00:07:54.326Z,18.30
2022-08-02T00:10:29.167Z,18.20
2022-08-02T00:12:59.477Z,18.30
2022-08-02T00:15:36.376Z,18.30
2022-08-02T00:18:05.243Z,18.20
2022-08-02T00:20:40.061Z,18.30
2022-08-02T00:23:08.777Z,18.30
2022-08-02T00:25:54.991Z,18.30
2022-08-02T00:28:27.446Z,18.30
2022-08-02T00:31:05.166Z,18.20
2022-08-02T00:34:27.176Z,18.20
2022-08-02T00:36:36.092Z,18.20
2022-08-02T00:39:04.357Z,18.20
2022-08-02T00:42:01.416Z,18.20
2022-08-02T00:44:29.778Z,18.20
2022-08-02T00:47:06.407Z,18.20
2022-08-02T00:49:34.924Z,18.20
2022-08-02T00:52:10.524Z,18.10
2022-08-02T00:54:39.397Z,18.10
2022-08-02T00:57:14.433Z,18.10
2022-08-02T00:59:43.302Z,18.10
2022-08-02T01:02:20.325Z,18.10
2022-08-02T01:04:48.720Z,18.10
2022-08-02T01:07:24.040Z,18.10
2022-08-02T01:09:52.587Z,18.00
2022-08-02T01:12:27.133Z,18.00
2022-08-02T01:14:58.268Z,18.00
2022-08-02T01:17:43.058Z,17.90
2022-08-02T01:20:21.246Z,18.00
2022-08-02T01:23:22.118Z,17.90
2022-08-02T01:26:20.077Z,17.90
2022-08-02T01:28:54.222Z,17.90
2022-08-02T01:31:40.111Z,17.90
2022-08-02T01:34:24.453Z,17.90
2022-08-02T01:37:06.234Z,17.90
2022-08-02T01:39:37.896Z,17.90
2022-08-02T01:42:14.561Z,17.90
2022-08-02T01:44:47.598Z,17.80
2022-08-02T01:47:26.146Z,17.80
2022-08-02T01:49:59.276Z,17.80
2022-08-02T01:52:38.259Z,17.80
2022-08-02T01:55:09.911Z,17.70
2022-08-02T01:57:57.091Z,17.70
2022-08-02T02:00:31.827Z,17.70
2022-08-02T02:03:09.141Z,17.60
2022-08-02T02:05:39.073Z,17.60
2022-08-02T02:08:15.630Z,17.60
2022-08-02T02:10:57.876Z,17.50
2022-08-02T02:13:54.175Z,17.50
2022-08-02T02:16:25.161Z,17.50
2022-08-02T02:19:01.267Z,17.50
2022-08-02T02:21:29.964Z,17.40
2022-08-02T02:24:09.138Z,17.40
2022-08-02T02:26:49.288Z,17.30
2022-08-02T02:29:30.178Z,17.40
2022-08-02T02:32:08.899Z,17.30
2022-08-02T02:34:53.541Z,17.30
2022-08-02T02:37:25.090Z,17.30
2022-08-02T02:40:02.197Z,17.20
2022-08-02T02:42:33.805Z,17.20
2022-08-02T02:45:11.291Z,17.20
2022-08-02T02:47:42.511Z,17.20
2022-08-02T02:50:19.316Z,17.10
2022-08-02T02:52:48.972Z,17.10
2022-08-02T02:55:26.332Z,17.10
2022-08-02T02:57:55.705Z,17.10
2022-08-02T03:00:46.402Z,17.10
2022-08-02T03:03:19.709Z,17.10
2022-08-02T03:05:56.225Z,17.10
2022-08-02T03:08:24.843Z,17.10
2022-08-02T03:11:00.532Z,17.10
2022-08-02T03:13:33.290Z,17.00
2022-08-02T03:16:13.564Z,17.00
2022-08-02T03:18:45.654Z,17.00
2022-08-02T03:21:21.575Z,16.90
2022-08-02T03:23:50.835Z,17.00
2022-08-02T03:26:26.602Z,16.90
2022-08-02T03:28:55.063Z,16.90
2022-08-02T03:31:32.780Z,16.90
2022-08-02T03:34:04.188Z,16.90
2022-08-02T03:36:41.244Z,16.80
2022-08-02T03:39:10.080Z,16.80
2022-08-02T03:41:46.354Z,16.80
2022-08-02T03:44:16.316Z,16.80
2022-08-02T03:46:52.352Z,16.80
2022-08-02T03:49:22.924Z,16.80
2022-08-02T03:51:58.567Z,16.80
2022-08-02T03:54:34.578Z,16.80
2022-08-02T03:57:20.280Z,16.80
2022-08-02T03:59:48.760Z,16.80
2022-08-02T04:02:23.269Z,16.80
2022-08-02T04:04:53.201Z,16.80
2022-08-02T04:08:35.244Z,16.80
2022-08-02T04:10:17.440Z,16.80
2022-08-02T04:12:53.368Z,16.80
2022-08-02T04:15:22.632Z,16.80
2022-08-02T04:18:03.320Z,16.90
2022-08-02T04:20:36.111Z,16.90
2022-08-02T04:23:14.598Z,16.90
2022-08-02T04:25:44.866Z,16.90
2022-08-02T04:28:27.550Z,16.90
2022-08-02T04:31:02.818Z,17.00
2022-08-02T04:33:45.682Z,17.00
2022-08-02T04:36:16.135Z,17.00
2022-08-02T04:39:07.308Z,17.00
2022-08-02T04:41:41.056Z,17.00
2022-08-02T04:44:19.317Z,17.10
2022-08-02T04:46:47.812Z,17.10
2022-08-02T04:49:22.447Z,17.10
2022-08-02T04:51:52.436Z,17.10
2022-08-02T04:54:27.430Z,17.20
2022-08-02T04:56:55.945Z,17.20
2022-08-02T04:59:30.342Z,17.20
2022-08-02T05:01:58.700Z,17.20
2022-08-02T05:04:34.350Z,17.20
2022-08-02T05:07:04.271Z,17.20
2022-08-02T05:09:39.354Z,17.20
2022-08-02T05:12:09.205Z,17.30
2022-08-02T05:14:44.291Z,17.40
2022-08-02T05:17:13.028Z,17.50
2022-08-02T05:19:48.440Z,17.60
2022-08-02T05:22:18.252Z,17.70
2022-08-02T05:24:53.670Z,17.80
2022-08-02T05:27:23.158Z,17.90
2022-08-02T05:29:58.661Z,17.90
2022-08-02T05:32:34.209Z,18.00
2022-08-02T05:35:09.712Z,18.10
2022-08-02T05:37:40.133Z,18.20
2022-08-02T05:40:25.360Z,18.40
2022-08-02T05:42:54.681Z,18.60
2022-08-02T05:45:29.511Z,18.70
2022-08-02T05:47:58.058Z,18.90
2022-08-02T05:50:34.494Z,19.10
2022-08-02T05:53:09.990Z,19.20
2022-08-02T05:55:53.509Z,19.30
2022-08-02T05:58:29.154Z,19.30
2022-08-02T06:01:04.382Z,19.30
2022-08-02T06:03:38.316Z,19.40
2022-08-02T06:06:16.421Z,19.50
2022-08-02T06:08:49.011Z,19.50
2022-08-02T06:11:27.398Z,19.60
2022-08-02T06:13:56.852Z,19.70
2022-08-02T06:16:36.838Z,19.80
2022-08-02T06:19:12.846Z,20.00
2022-08-02T06:22:36.085Z,20.10
2022-08-02T06:24:39.586Z,20.10
2022-08-02T06:27:15.536Z,20.10
2022-08-02T06:29:46.892Z,20.10
2022-08-02T06:32:25.739Z,20.10
2022-08-02T06:35:00.911Z,20.30
2022-08-02T06:37:44.489Z,20.40
2022-08-02T06:40:33.497Z,20.30
2022-08-02T06:43:13.694Z,20.30
2022-08-02T06:45:49.755Z,20.20
2022-08-02T06:48:18.312Z,20.20
2022-08-02T06:50:53.466Z,20.30
2022-08-02T06:53:28.734Z,20.30
2022-08-02T06:55:59.340Z,20.40
2022-08-02T06:58:34.529Z,20.50
2022-08-02T07:01:07.302Z,20.50
2022-08-02T07:03:42.604Z,20.50
2022-08-02T07:06:12.206Z,20.60
2022-08-02T07:09:04.912Z,20.70
2022-08-02T07:11:43.776Z,20.70
2022-08-02T07:14:12.355Z,20.80
2022-08-02T07:16:40.785Z,21.00
2022-08-02T07:19:15.448Z,21.00
2022-08-02T07:21:59.516Z,21.10
2022-08-02T07:24:36.573Z,21.20
2022-08-02T07:27:11.705Z,21.20
2022-08-02T07:29:47.718Z,21.20
2022-08-02T07:32:29.449Z,21.20
2022-08-02T07:34:58.430Z,21.30
2022-08-02T07:37:54.859Z,21.40
2022-08-02T07:40:25.149Z,21.40
2022-08-02T07:43:04.433Z,21.50
2022-08-02T07:45:35.732Z,21.60
2022-08-02T07:48:12.496Z,21.60
2022-08-02T07:50:41.099Z,21.70
2022-08-02T07:53:16.509Z,21.80
2022-08-02T07:55:45.041Z,21.90
2022-08-02T07:58:21.475Z,21.80
2022-08-02T08:00:50.011Z,21.80
2022-08-02T08:03:24.535Z,21.80
2022-08-02T08:05:54.871Z,21.90
2022-08-02T08:08:29.532Z,22.00
2022-08-02T08:10:58.125Z,22.10
2022-08-02T08:13:34.443Z,22.30
2022-08-02T08:16:04.188Z,22.50
2022-08-02T08:18:39.626Z,22.80
2022-08-02T08:21:07.833Z,23.10
2022-08-02T08:23:43.833Z,23.30
2022-08-02T08:26:15.650Z,23.50
2022-08-02T08:28:52.646Z,23.80
2022-08-02T08:31:40.872Z,23.90
2022-08-02T08:34:15.506Z,24.10
2022-08-02T08:36:44.563Z,24.20
2022-08-02T08:39:19.872Z,24.20
2022-08-02T08:41:48.525Z,24.20
2022-08-02T08:44:24.640Z,24.30
2022-08-02T08:46:53.770Z,24.70
2022-08-02T08:49:34.911Z,24.90
2022-08-02T08:52:06.866Z,25.10
2022-08-02T08:54:45.650Z,25.40
2022-08-02T08:57:18.194Z,25.60
2022-08-02T08:59:55.576Z,25.70
2022-08-02T09:02:28.337Z,25.70
2022-08-02T09:05:04.555Z,25.90
2022-08-02T09:07:33.004Z,26.00
2022-08-02T09:10:07.613Z,26.10
2022-08-02T09:12:36.345Z,26.20
2022-08-02T09:15:16.084Z,26.40
2022-08-02T09:17:53.379Z,26.50
2022-08-02T09:20:30.803Z,26.80
2022-08-02T09:23:10.193Z,26.90
2022-08-02T09:25:58.983Z,26.70
2022-08-02T09:28:29.925Z,26.70
2022-08-02T09:31:11.706Z,26.90
2022-08-02T09:33:52.186Z,27.10
2022-08-02T09:36:27.604Z,27.10
2022-08-02T09:38:59.092Z,27.20
2022-08-02T09:41:35.769Z,27.20
2022-08-02T09:44:07.096Z,27.30
2022-08-02T09:46:45.600Z,27.30
2022-08-02T09:49:16.944Z,27.40
2022-08-02T09:51:57.923Z,27.50
2022-08-02T09:54:29.168Z,27.50
2022-08-02T09:57:06.990Z,27.60
2022-08-02T09:59:35.598Z,27.80
2022-08-02T10:02:22.687Z,28.20
2022-08-02T10:04:53.289Z,28.30
2022-08-02T10:07:29.613Z,28.40
2022-08-02T10:09:58.662Z,28.60
2022-08-02T10:12:33.945Z,28.90
2022-08-02T10:15:02.312Z,29.00
2022-08-02T10:17:38.724Z,28.80
2022-08-02T10:20:08.075Z,28.60
2022-08-02T10:22:44.774Z,28.30
2022-08-02T10:25:13.574Z,28.20
2022-08-02T10:28:04.625Z,28.30
2022-08-02T10:30:34.736Z,28.40
2022-08-02T10:33:18.766Z,28.70
2022-08-02T10:36:06.660Z,29.00
2022-08-02T10:38:43.636Z,29.40
2022-08-02T10:41:13.562Z,29.50
2022-08-02T10:43:55.756Z,29.70
2022-08-02T10:46:35.709Z,29.80
2022-08-02T10:49:39.793Z,30.00
2022-08-02T10:52:11.478Z,29.90
2022-08-02T10:54:48.675Z,30.10
2022-08-02T10:57:25.856Z,30.10
2022-08-02T11:00:04.666Z,29.90
2022-08-02T11:02:39.011Z,29.60
2022-08-02T11:05:42.884Z,29.60
2022-08-02T11:08:20.971Z,29.70
2022-08-02T11:10:56.676Z,29.80
2022-08-02T11:13:26.801Z,29.70
2022-08-02T11:16:11.550Z,29.90
2022-08-02T11:19:17.483Z,30.30
2022-08-02T11:22:08.813Z,30.50
2022-08-02T11:24:38.887Z,30.10
2022-08-02T11:27:16.835Z,29.40
2022-08-02T11:29:47.235Z,29.20
2022-08-02T11:32:31.518Z,29.40
2022-08-02T11:35:07.105Z,29.40
2022-08-02T11:37:44.695Z,29.70
2022-08-02T11:40:19.866Z,29.70
2022-08-02T11:42:56.801Z,29.70
2022-08-02T11:45:29.897Z,29.70
2022-08-02T11:48:04.702Z,29.60
2022-08-02T11:50:33.269Z,29.40
2022-08-02T11:53:09.824Z,29.40
2022-08-02T11:55:38.612Z,29.40
2022-08-02T11:58:07.893Z,29.40
2022-08-02T12:00:43.854Z,29.20
2022-08-02T12:03:16.539Z,29.30
2022-08-02T12:06:05.922Z,29.60
2022-08-02T12:08:54.339Z,29.80
2022-08-02T12:11:23.563Z,29.90
2022-08-02T12:13:58.901Z,30.00
2022-08-02T12:16:51.424Z,30.30
2022-08-02T12:19:26.769Z,30.20
2022-08-02T12:22:27.442Z,30.10
2022-08-02T12:25:06.077Z,30.20
2022-08-02T12:27:36.577Z,30.20
2022-08-02T12:30:14.773Z,30.00
2022-08-02T12:32:50.018Z,29.90
2022-08-02T12:35:27.756Z,29.60
2022-08-02T12:37:57.381Z,29.70
2022-08-02T12:40:38.127Z,30.20
2022-08-02T12:43:08.560Z,30.30
2022-08-02T12:45:55.149Z,30.00
2022-08-02T12:48:38.071Z,30.00
2022-08-02T12:51:54.762Z,29.90
2022-08-02T12:54:30.672Z,29.90
2022-08-02T12:57:19.866Z,29.90
2022-08-02T12:59:53.256Z,30.10
2022-08-02T13:02:29.151Z,30.20
2022-08-02T13:05:01.024Z,30.40
2022-08-02T13:07:36.141Z,30.30
2022-08-02T13:10:05.784Z,30.20
2022-08-02T13:12:43.914Z,30.30
2022-08-02T13:15:50.083Z,29.90
2022-08-02T13:18:07.817Z,29.90
2022-08-02T13:20:39.115Z,30.30
2022-08-02T13:23:21.488Z,30.30
2022-08-02T13:25:52.852Z,30.10
2022-08-02T13:28:29.962Z,29.70
2022-08-02T13:31:10.025Z,29.60
2022-08-02T13:33:59.909Z,29.90
2022-08-02T13:36:28.411Z,30.10
2022-08-02T13:39:03.777Z,30.30
2022-08-02T13:41:33.724Z,30.20
2022-08-02T13:44:11.027Z,30.60
2022-08-02T13:46:45.727Z,30.70
2022-08-02T13:49:21.924Z,30.90
2022-08-02T13:52:09.961Z,30.90
2022-08-02T13:54:44.935Z,30.70
2022-08-02T13:57:13.530Z,30.60
2022-08-02T13:59:58.413Z,30.70
2022-08-02T14:02:28.398Z,30.70
2022-08-02T14:05:03.844Z,31.00
2022-08-02T14:07:32.495Z,31.20
2022-08-02T14:10:07.983Z,31.30
2022-08-02T14:12:36.540Z,31.60
2022-08-02T14:15:13.963Z,31.40
2022-08-02T14:17:42.597Z,31.50
2022-08-02T14:20:29.873Z,31.70
2022-08-02T14:22:58.836Z,31.60
2022-08-02T14:25:33.887Z,31.50
2022-08-02T14:28:02.378Z,31.50
2022-08-02T14:30:39.024Z,31.50
2022-08-02T14:33:26.984Z,31.50
2022-08-02T14:36:03.833Z,31.50
2022-08-02T14:38:35.329Z,31.20
2022-08-02T14:41:09.914Z,31.20
2022-08-02T14:43:55.346Z,31.30
2022-08-02T14:46:32.272Z,31.30
2022-08-02T14:49:03.668Z,31.00
2022-08-02T14:51:38.879Z,30.90
2022-08-02T14:54:09.117Z,30.90
2022-08-02T14:56:48.307Z,31.00
2022-08-02T14:59:17.417Z,31.10
2022-08-02T15:01:53.944Z,31.00
2022-08-02T15:04:22.861Z,30.70
2022-08-02T15:06:58.044Z,30.70
2022-08-02T15:09:27.038Z,30.80
2022-08-02T15:12:05.363Z,30.80
2022-08-02T15:14:34.359Z,30.80
2022-08-02T15:17:11.224Z,30.60
2022-08-02T15:19:56.167Z,30.60
2022-08-02T15:22:34.942Z,30.30
2022-08-02T15:25:03.708Z,30.10
2022-08-02T15:27:50.046Z,30.00
2022-08-02T15:30:19.313Z,30.10
2022-08-02T15:32:56.932Z,30.10
2022-08-02T15:35:25.800Z,30.00
2022-08-02T15:38:01.074Z,30.00
2022-08-02T15:40:30.651Z,29.90
2022-08-02T15:43:05.893Z,29.80
2022-08-02T15:45:35.841Z,29.80
2022-08-02T15:48:12.966Z,29.70
2022-08-02T15:50:41.895Z,29.50
2022-08-02T15:53:16.920Z,29.40
2022-08-02T15:55:52.760Z,29.40
2022-08-02T15:58:44.110Z,29.40
2022-08-02T16:01:19.204Z,29.30
2022-08-02T16:03:49.236Z,29.20
2022-08-02T16:06:17.552Z,29.10
2022-08-02T16:08:54.564Z,28.90
2022-08-02T16:11:30.085Z,28.90
2022-08-02T16:13:59.211Z,29.00
2022-08-02T16:16:36.093Z,29.00
2022-08-02T16:19:46.463Z,29.10
2022-08-02T16:22:03.076Z,29.10
2022-08-02T16:24:32.095Z,29.20
2022-08-02T16:27:06.992Z,29.10
2022-08-02T16:29:36.498Z,29.00
2022-08-02T16:32:18.073Z,29.00
2022-08-02T16:35:07.461Z,29.00
2022-08-02T16:37:51.860Z,29.10
2022-08-02T16:40:23.456Z,29.10
2022-08-02T16:42:58.000Z,28.90
2022-08-02T16:45:28.854Z,28.90
2022-08-02T16:48:09.113Z,28.80
2022-08-02T16:50:39.575Z,28.70
2022-08-02T16:53:17.674Z,28.70
2022-08-02T16:56:03.377Z,28.70
2022-08-02T16:58:38.134Z,28.70
2022-08-02T17:01:06.807Z,28.70
2022-08-02T17:03:55.921Z,28.70
2022-08-02T17:06:27.501Z,28.70
2022-08-02T17:09:04.382Z,28.70
2022-08-02T17:11:32.898Z,28.70
2022-08-02T17:14:08.117Z,28.70
2022-08-02T17:16:38.525Z,28.70
2022-08-02T17:19:15.008Z,28.70
2022-08-02T17:21:45.088Z,28.60
2022-08-02T17:24:20.148Z,28.50
2022-08-02T17:26:48.889Z,28.60
2022-08-02T17:29:25.160Z,28.60
2022-08-02T17:32:05.087Z,28.50
2022-08-02T17:34:56.346Z,28.50
2022-08-02T17:37:41.642Z,28.40
2022-08-02T17:40:19.688Z,28.40
2022-08-02T17:42:48.554Z,28.40
2022-08-02T17:45:25.577Z,28.40
2022-08-02T17:48:05.148Z,28.30
2022-08-02T17:50:41.043Z,28.20
2022-08-02T17:53:19.330Z,28.10
2022-08-02T17:55:54.162Z,28.00
2022-08-02T17:58:22.566Z,28.00
2022-08-02T18:01:08.364Z,28.00
2022-08-02T18:03:52.216Z,27.90
2022-08-02T18:06:30.382Z,27.90
2022-08-02T18:09:00.043Z,27.80
2022-08-02T18:11:51.825Z,27.80
2022-08-02T18:14:22.112Z,27.80
2022-08-02T18:17:00.231Z,27.80
2022-08-02T18:19:42.816Z,27.80
2022-08-02T18:22:25.091Z,27.70
2022-08-02T18:24:56.450Z,27.70
2022-08-02T18:27:31.098Z,27.70
2022-08-02T18:30:00.281Z,27.70
2022-08-02T18:33:57.155Z,27.70
2022-08-02T18:35:41.840Z,27.70
2022-08-02T18:38:17.137Z,27.60
2022-08-02T18:40:50.814Z,27.60
2022-08-02T18:43:29.342Z,27.50
2022-08-02T18:46:06.949Z,27.50
2022-08-02T18:48:51.110Z,27.50
2022-08-02T18:51:19.910Z,27.40
2022-08-02T18:53:57.173Z,27.40
2022-08-02T18:56:27.090Z,27.30
2022-08-02T18:59:09.146Z,27.30
2022-08-02T19:01:46.577Z,27.20
2022-08-02T19:04:27.679Z,27.10
2022-08-02T19:07:07.455Z,27.10
2022-08-02T19:09:44.287Z,27.00
2022-08-02T19:12:26.005Z,26.90
2022-08-02T19:15:05.126Z,26.80
2022-08-02T19:17:55.376Z,26.80
2022-08-02T19:20:29.053Z,26.70
2022-08-02T19:22:58.951Z,26.60
2022-08-02T19:28:30.140Z,26.40
2022-08-02T19:30:59.114Z,26.40
2022-08-02T19:34:05.853Z,26.30
2022-08-02T19:36:30.102Z,26.20
2022-08-02T19:39:09.203Z,26.10
2022-08-02T19:41:46.980Z,26.00
2022-08-02T19:44:29.526Z,26.00
2022-08-02T19:46:58.513Z,25.90
2022-08-02T19:49:39.930Z,25.80
2022-08-02T19:52:21.912Z,25.70
2022-08-02T19:56:01.623Z,25.70
2022-08-02T19:57:49.012Z,25.60
2022-08-02T20:00:30.538Z,25.60
2022-08-02T20:03:00.150Z,25.50
2022-08-02T20:05:35.140Z,25.40
2022-08-02T20:08:03.512Z,25.40
2022-08-02T20:10:40.252Z,25.40
2022-08-02T20:13:08.987Z,25.30
2022-08-02T20:15:56.405Z,25.20
2022-08-02T20:18:33.355Z,25.20
2022-08-02T20:21:02.781Z,25.10
2022-08-02T20:23:37.320Z,25.10
2022-08-02T20:26:06.493Z,25.10
2022-08-02T20:28:44.236Z,25.10
2022-08-02T20:31:14.440Z,25.00
2022-08-02T20:33:55.769Z,24.90
2022-08-02T20:36:25.136Z,24.90
2022-08-02T20:39:00.327Z,24.90
2022-08-02T20:41:36.513Z,24.90
2022-08-02T20:44:30.818Z,24.80
2022-08-02T20:47:01.616Z,24.70
2022-08-02T20:49:40.863Z,24.70
2022-08-02T20:52:24.038Z,24.70
2022-08-02T20:55:00.250Z,24.60
2022-08-02T20:57:36.119Z,24.50
2022-08-02T21:00:24.219Z,24.50
2022-08-02T21:02:53.857Z,24.50
2022-08-02T21:05:54.400Z,24.50
2022-08-02T21:08:27.265Z,24.50
2022-08-02T21:10:55.807Z,24.40
2022-08-02T21:13:26.451Z,24.40
2022-08-02T21:16:06.704Z,24.30
2022-08-02T21:18:45.374Z,24.30
2022-08-02T21:21:14.591Z,24.20
2022-08-02T21:23:54.650Z,24.20
2022-08-02T21:26:28.543Z,24.10
2022-08-02T21:29:05.751Z,24.10
2022-08-02T21:31:36.492Z,24.00
2022-08-02T21:34:22.613Z,23.90
2022-08-02T21:36:55.857Z,23.80
2022-08-02T21:39:31.311Z,23.80
2022-08-02T21:42:00.535Z,23.70
2022-08-02T21:44:29.125Z,23.70
2022-08-02T21:47:05.292Z,23.60
2022-08-02T21:50:12.791Z,23.50
2022-08-02T21:52:32.038Z,23.50
2022-08-02T21:55:09.635Z,23.40
2022-08-02T21:57:43.328Z,23.40
2022-08-02T22:00:28.238Z,23.30
2022-08-02T22:02:57.549Z,23.10
2022-08-02T22:05:37.283Z,23.10
2022-08-02T22:08:06.560Z,23.10
2022-08-02T22:10:59.423Z,23.00
2022-08-02T22:13:28.399Z,23.00
2022-08-02T22:16:13.466Z,22.90
2022-08-02T22:18:41.970Z,22.80
2022-08-02T22:21:33.498Z,22.80
2022-08-02T22:24:19.492Z,22.70
2022-08-02T22:27:02.460Z,22.70
2022-08-02T22:29:31.033Z,22.70
2022-08-02T22:32:06.365Z,22.60
2022-08-02T22:34:51.844Z,22.50
2022-08-02T22:38:14.897Z,22.50
2022-08-02T22:40:18.087Z,22.40
2022-08-02T22:42:53.346Z,22.40
2022-08-02T22:45:22.304Z,22.40
2022-08-02T22:47:57.330Z,22.30
2022-08-02T22:50:27.980Z,22.30
2022-08-02T22:53:05.466Z,22.20
2022-08-02T22:55:34.803Z,22.10
2022-08-02T22:58:16.388Z,22.10
2022-08-02T22:58:48.002Z,26.50
2022-08-02T23:00:48.588Z,22.00
2022-08-02T23:03:23.362Z,22.00
2022-08-02T23:05:52.182Z,21.90
2022-08-02T23:08:28.390Z,21.80
2022-08-02T23:10:57.248Z,21.80
2022-08-02T23:13:32.473Z,21.80
2022-08-02T23:16:18.257Z,21.80
2022-08-02T23:19:10.483Z,21.70
2022-08-02T23:22:01.408Z,21.70
2022-08-02T23:24:35.480Z,21.70
2022-08-02T23:27:19.233Z,21.70
2022-08-02T23:30:01.529Z,21.60
2022-08-02T23:32:30.609Z,21.60
2022-08-02T23:35:06.450Z,21.60
2022-08-02T23:37:58.904Z,21.60
2022-08-02T23:40:40.098Z,21.50
2022-08-02T23:43:16.737Z,21.50
2022-08-02T23:45:46.706Z,21.40
2022-08-02T23:48:21.399Z,21.40
2022-08-02T23:50:49.800Z,21.40
2022-08-02T23:53:18.295Z,21.40
2022-08-02T23:55:54.430Z,21.40
2022-08-02T23:58:32.923Z,21.40
